sensor_id;sensor_type;location;lat;lon;timestamp;pressure;altitude;pressure_sealevel;temperature;humidity
69035;BME280;56091;55.756;37.412;2023-04-01T00:02:20;97569.53;;;1.41;94.33
69035;BME280;56091;55.756;37.412;2023-04-01T00:07:21;97583.25;;;1.38;93.59
69035;BME280;56091;55.756;37.412;2023-04-01T00:12:26;97568.16;;;1.27;93.31
69035;BME280;56091;55.756;37.412;2023-04-01T00:17:26;97565.06;;;1.30;93.27
69035;BME280;56091;55.756;37.412;2023-04-01T00:22:30;97560.19;;;1.39;93.50
69035;BME280;56091;55.756;37.412;2023-04-01T00:27:31;97561.38;;;1.48;93.46
69035;BME280;56091;55.756;37.412;2023-04-01T00:32:32;97557.31;;;1.57;92.48
69035;BME280;56091;55.756;37.412;2023-04-01T00:37:35;97556.28;;;1.58;91.60
69035;BME280;56091;55.756;37.412;2023-04-01T00:42:37;97553.13;;;1.61;91.27
69035;BME280;56091;55.756;37.412;2023-04-01T00:47:38;97543.56;;;1.60;91.40
69035;BME280;56091;55.756;37.412;2023-04-01T00:52:39;97548.00;;;1.71;90.98
69035;BME280;56091;55.756;37.412;2023-04-01T00:57:42;97544.38;;;1.78;90.77
69035;BME280;56091;55.756;37.412;2023-04-01T01:02:45;97535.59;;;1.77;90.62
69035;BME280;56091;55.756;37.412;2023-04-01T01:08:06;97543.34;;;1.79;89.84
69035;BME280;56091;55.756;37.412;2023-04-01T01:35:42;97558.72;;;1.77;88.17
69035;BME280;56091;55.756;37.412;2023-04-01T01:40:51;97551.22;;;1.73;87.60
69035;BME280;56091;55.756;37.412;2023-04-01T01:45:58;97558.47;;;1.78;86.81
69035;BME280;56091;55.756;37.412;2023-04-01T01:51:01;97533.94;;;1.59;85.63
69035;BME280;56091;55.756;37.412;2023-04-01T01:56:03;97557.19;;;1.64;85.86
69035;BME280;56091;55.756;37.412;2023-04-01T02:01:25;97551.78;;;1.75;85.60
69035;BME280;56091;55.756;37.412;2023-04-01T02:06:32;97551.06;;;1.80;85.21
69035;BME280;56091;55.756;37.412;2023-04-01T02:21:46;97564.13;;;1.99;84.43
69035;BME280;56091;55.756;37.412;2023-04-01T02:26:47;97561.25;;;2.00;84.08
69035;BME280;56091;55.756;37.412;2023-04-01T02:31:49;97552.94;;;1.97;83.76
69035;BME280;56091;55.756;37.412;2023-04-01T02:36:51;97571.97;;;2.05;83.57
69035;BME280;56091;55.756;37.412;2023-04-01T02:41:54;97568.91;;;1.97;83.77
69035;BME280;56091;55.756;37.412;2023-04-01T02:46:54;97568.66;;;1.98;83.64
69035;BME280;56091;55.756;37.412;2023-04-01T02:51:55;97577.75;;;2.02;83.30
69035;BME280;56091;55.756;37.412;2023-04-01T02:56:58;97575.84;;;1.98;84.09
69035;BME280;56091;55.756;37.412;2023-04-01T03:01:59;97573.97;;;1.81;84.01
69035;BME280;56091;55.756;37.412;2023-04-01T03:07:00;97580.38;;;1.68;84.51
69035;BME280;56091;55.756;37.412;2023-04-01T03:12:01;97586.78;;;1.55;84.98
69035;BME280;56091;55.756;37.412;2023-04-01T03:17:02;97575.06;;;1.40;85.74
69035;BME280;56091;55.756;37.412;2023-04-01T03:22:03;97593.81;;;1.62;85.71
69035;BME280;56091;55.756;37.412;2023-04-01T03:27:04;97593.03;;;1.78;85.24
69035;BME280;56091;55.756;37.412;2023-04-01T03:32:05;97594.72;;;1.67;84.65
69035;BME280;56091;55.756;37.412;2023-04-01T03:37:06;97598.03;;;1.74;84.77
69035;BME280;56091;55.756;37.412;2023-04-01T03:42:07;97601.22;;;1.60;84.56
69035;BME280;56091;55.756;37.412;2023-04-01T03:47:07;97610.22;;;1.59;85.05
69035;BME280;56091;55.756;37.412;2023-04-01T03:52:15;97623.28;;;1.60;85.03
69035;BME280;56091;55.756;37.412;2023-04-01T03:57:16;97622.50;;;1.60;85.04
69035;BME280;56091;55.756;37.412;2023-04-01T04:02:17;97617.50;;;1.63;84.78
69035;BME280;56091;55.756;37.412;2023-04-01T04:07:18;97642.31;;;1.69;84.61
69035;BME280;56091;55.756;37.412;2023-04-01T04:12:33;97647.69;;;1.57;85.24
69035;BME280;56091;55.756;37.412;2023-04-01T04:17:34;97653.66;;;1.64;85.77
69035;BME280;56091;55.756;37.412;2023-04-01T04:22:36;97649.88;;;1.60;85.69
69035;BME280;56091;55.756;37.412;2023-04-01T04:27:39;97660.63;;;1.65;85.63
69035;BME280;56091;55.756;37.412;2023-04-01T04:32:42;97644.09;;;1.63;85.30
69035;BME280;56091;55.756;37.412;2023-04-01T04:37:44;97665.78;;;1.72;85.05
69035;BME280;56091;55.756;37.412;2023-04-01T04:42:45;97666.69;;;1.78;84.86
69035;BME280;56091;55.756;37.412;2023-04-01T04:47:49;97664.53;;;1.91;84.95
69035;BME280;56091;55.756;37.412;2023-04-01T04:52:50;97667.41;;;2.02;84.38
69035;BME280;56091;55.756;37.412;2023-04-01T04:57:52;97676.69;;;2.16;83.90
69035;BME280;56091;55.756;37.412;2023-04-01T05:02:53;97681.06;;;2.22;83.08
69035;BME280;56091;55.756;37.412;2023-04-01T05:07:54;97684.13;;;2.31;82.03
69035;BME280;56091;55.756;37.412;2023-04-01T05:12:55;97690.44;;;2.42;81.98
69035;BME280;56091;55.756;37.412;2023-04-01T05:17:57;97692.88;;;2.60;81.12
69035;BME280;56091;55.756;37.412;2023-04-01T05:22:59;97698.03;;;2.67;80.58
69035;BME280;56091;55.756;37.412;2023-04-01T05:28:00;97694.94;;;2.75;79.75
69035;BME280;56091;55.756;37.412;2023-04-01T05:33:01;97710.78;;;2.99;79.16
69035;BME280;56091;55.756;37.412;2023-04-01T05:38:03;97700.91;;;3.16;79.23
69035;BME280;56091;55.756;37.412;2023-04-01T05:43:05;97710.56;;;3.22;78.78
69035;BME280;56091;55.756;37.412;2023-04-01T05:48:07;97699.91;;;3.22;78.75
69035;BME280;56091;55.756;37.412;2023-04-01T05:53:13;97704.31;;;3.33;78.39
69035;BME280;56091;55.756;37.412;2023-04-01T05:58:16;97717.19;;;3.59;78.16
69035;BME280;56091;55.756;37.412;2023-04-01T06:03:20;97695.53;;;3.77;75.64
69035;BME280;56091;55.756;37.412;2023-04-01T06:08:21;97714.13;;;4.16;76.03
69035;BME280;56091;55.756;37.412;2023-04-01T06:24:35;97735.22;;;4.18;74.19
69035;BME280;56091;55.756;37.412;2023-04-01T06:30:24;97740.03;;;4.21;74.17
69035;BME280;56091;55.756;37.412;2023-04-01T06:41:24;97752.97;;;4.07;74.81
69035;BME280;56091;55.756;37.412;2023-04-01T06:46:47;97738.44;;;4.20;73.03
69035;BME280;56091;55.756;37.412;2023-04-01T06:52:23;97761.16;;;4.77;71.42
69035;BME280;56091;55.756;37.412;2023-04-01T06:58:13;97760.50;;;4.97;70.78
69035;BME280;56091;55.756;37.412;2023-04-01T07:03:36;97758.38;;;4.99;69.52
69035;BME280;56091;55.756;37.412;2023-04-01T07:08:43;97745.91;;;5.09;68.19
69035;BME280;56091;55.756;37.412;2023-04-01T07:24:09;97762.00;;;5.52;65.96
69035;BME280;56091;55.756;37.412;2023-04-01T07:29:18;97769.81;;;5.64;65.96
69035;BME280;56091;55.756;37.412;2023-04-01T07:40:20;97780.03;;;6.35;62.78
69035;BME280;56091;55.756;37.412;2023-04-01T07:45:36;97791.00;;;6.29;62.13
69035;BME280;56091;55.756;37.412;2023-04-01T07:56:08;97782.84;;;6.03;64.41
69035;BME280;56091;55.756;37.412;2023-04-01T08:06:53;97794.41;;;6.14;63.84
69035;BME280;56091;55.756;37.412;2023-04-01T08:12:02;97800.44;;;6.57;60.89
69035;BME280;56091;55.756;37.412;2023-04-01T08:17:35;97800.22;;;6.79;60.70
69035;BME280;56091;55.756;37.412;2023-04-01T08:23:14;97808.53;;;6.82;60.18
69035;BME280;56091;55.756;37.412;2023-04-01T08:33:38;97810.69;;;5.59;62.91
69035;BME280;56091;55.756;37.412;2023-04-01T08:44:16;97808.97;;;5.85;62.28
69035;BME280;56091;55.756;37.412;2023-04-01T09:10:56;97820.13;;;6.15;57.11
69035;BME280;56091;55.756;37.412;2023-04-01T09:16:37;97812.47;;;5.91;59.65
69035;BME280;56091;55.756;37.412;2023-04-01T09:54:04;97848.78;;;7.39;56.96
69035;BME280;56091;55.756;37.412;2023-04-01T10:16:08;97870.75;;;7.97;53.82
69035;BME280;56091;55.756;37.412;2023-04-01T10:21:29;97881.47;;;7.97;54.07
69035;BME280;56091;55.756;37.412;2023-04-01T10:27:10;97879.88;;;7.91;54.11
69035;BME280;56091;55.756;37.412;2023-04-01T10:43:59;97882.44;;;8.32;52.72
69035;BME280;56091;55.756;37.412;2023-04-01T11:40:23;97906.56;;;10.45;44.68
69035;BME280;56091;55.756;37.412;2023-04-01T11:45:46;97914.16;;;10.09;45.68
69035;BME280;56091;55.756;37.412;2023-04-01T12:01:51;97909.91;;;10.32;43.84
69035;BME280;56091;55.756;37.412;2023-04-01T12:12:46;97900.03;;;10.70;44.38
69035;BME280;56091;55.756;37.412;2023-04-01T12:23:39;97923.94;;;10.34;45.49
69035;BME280;56091;55.756;37.412;2023-04-01T12:29:07;97922.31;;;10.57;44.84
69035;BME280;56091;55.756;37.412;2023-04-01T12:45:30;97921.50;;;10.57;44.87
69035;BME280;56091;55.756;37.412;2023-04-01T12:55:42;97932.75;;;10.40;45.22
69035;BME280;56091;55.756;37.412;2023-04-01T13:00:58;97940.22;;;10.48;46.03
69035;BME280;56091;55.756;37.412;2023-04-01T13:16:40;97954.03;;;9.77;45.97
69035;BME280;56091;55.756;37.412;2023-04-01T13:27:35;97958.81;;;9.51;44.22
69035;BME280;56091;55.756;37.412;2023-04-01T13:32:53;97967.50;;;9.38;44.81
69035;BME280;56091;55.756;37.412;2023-04-01T13:43:47;97978.69;;;9.11;45.96
69035;BME280;56091;55.756;37.412;2023-04-01T14:10:13;97995.81;;;8.55;50.61
69035;BME280;56091;55.756;37.412;2023-04-01T14:20:51;98009.25;;;8.55;52.56
69035;BME280;56091;55.756;37.412;2023-04-01T14:31:44;98015.72;;;8.44;53.94
69035;BME280;56091;55.756;37.412;2023-04-01T14:47:51;98039.38;;;8.26;57.41
69035;BME280;56091;55.756;37.412;2023-04-01T14:53:13;98037.47;;;8.11;59.10
69035;BME280;56091;55.756;37.412;2023-04-01T14:58:31;98032.13;;;7.86;61.28
69035;BME280;56091;55.756;37.412;2023-04-01T15:09:33;98049.53;;;7.68;63.96
69035;BME280;56091;55.756;37.412;2023-04-01T15:14:54;98039.28;;;7.49;64.43
69035;BME280;56091;55.756;37.412;2023-04-01T15:25:19;98063.13;;;7.35;65.61
69035;BME280;56091;55.756;37.412;2023-04-01T15:35:56;98085.94;;;7.33;66.21
69035;BME280;56091;55.756;37.412;2023-04-01T16:02:29;98123.44;;;7.28;69.29
69035;BME280;56091;55.756;37.412;2023-04-01T16:18:58;98135.06;;;6.91;70.51
69035;BME280;56091;55.756;37.412;2023-04-01T16:24:12;98120.56;;;6.92;71.41
69035;BME280;56091;55.756;37.412;2023-04-01T16:34:27;98149.31;;;6.96;71.59
69035;BME280;56091;55.756;37.412;2023-04-01T16:39:41;98155.63;;;6.80;72.31
69035;BME280;56091;55.756;37.412;2023-04-01T16:44:50;98142.97;;;6.75;72.49
69035;BME280;56091;55.756;37.412;2023-04-01T16:55:55;98168.00;;;6.86;72.37
69035;BME280;56091;55.756;37.412;2023-04-01T17:01:43;98162.81;;;6.74;72.39
69035;BME280;56091;55.756;37.412;2023-04-01T17:06:54;98168.38;;;6.68;72.87
69035;BME280;56091;55.756;37.412;2023-04-01T17:12:25;98168.09;;;6.64;72.89
69035;BME280;56091;55.756;37.412;2023-04-01T17:17:41;98164.34;;;6.65;73.17
69035;BME280;56091;55.756;37.412;2023-04-01T17:28:48;98168.66;;;6.66;73.77
69035;BME280;56091;55.756;37.412;2023-04-01T17:45:02;98177.88;;;6.48;73.84
69035;BME280;56091;55.756;37.412;2023-04-01T18:18:08;98207.56;;;6.41;74.99
69035;BME280;56091;55.756;37.412;2023-04-01T18:23:23;98207.25;;;6.38;75.04
69035;BME280;56091;55.756;37.412;2023-04-01T18:28:36;98211.75;;;6.32;75.19
69035;BME280;56091;55.756;37.412;2023-04-01T18:38:56;98236.56;;;6.22;76.08
69035;BME280;56091;55.756;37.412;2023-04-01T18:44:26;98234.56;;;6.13;76.80
69035;BME280;56091;55.756;37.412;2023-04-01T19:05:33;98249.09;;;6.44;75.94
69035;BME280;56091;55.756;37.412;2023-04-01T19:10:50;98242.88;;;6.38;77.06
69035;BME280;56091;55.756;37.412;2023-04-01T19:16:15;98247.13;;;6.34;77.34
69035;BME280;56091;55.756;37.412;2023-04-01T19:21:28;98252.50;;;6.34;76.96
69035;BME280;56091;55.756;37.412;2023-04-01T19:26:45;98262.88;;;6.31;77.12
69035;BME280;56091;55.756;37.412;2023-04-01T19:42:35;98260.28;;;6.14;78.31
69035;BME280;56091;55.756;37.412;2023-04-01T19:47:51;98269.88;;;6.10;78.89
69035;BME280;56091;55.756;37.412;2023-04-01T19:52:59;98267.94;;;6.05;79.33
69035;BME280;56091;55.756;37.412;2023-04-01T19:58:26;98270.63;;;6.05;79.92
69035;BME280;56091;55.756;37.412;2023-04-01T20:14:25;98287.38;;;6.17;80.05
69035;BME280;56091;55.756;37.412;2023-04-01T20:19:40;98266.28;;;5.99;80.07
69035;BME280;56091;55.756;37.412;2023-04-01T20:24:44;98280.34;;;6.11;80.40
69035;BME280;56091;55.756;37.412;2023-04-01T20:29:54;98281.22;;;6.17;80.42
69035;BME280;56091;55.756;37.412;2023-04-01T20:40:23;98260.50;;;6.07;80.21
69035;BME280;56091;55.756;37.412;2023-04-01T21:07:35;98294.16;;;6.25;79.75
69035;BME280;56091;55.756;37.412;2023-04-01T21:12:53;98304.88;;;6.25;79.69
69035;BME280;56091;55.756;37.412;2023-04-01T21:56:12;98311.22;;;6.41;79.55
69035;BME280;56091;55.756;37.412;2023-04-01T22:17:35;98328.34;;;6.40;80.41
69035;BME280;56091;55.756;37.412;2023-04-01T22:28:25;98294.72;;;6.27;80.31
69035;BME280;56091;55.756;37.412;2023-04-01T22:39:19;98324.19;;;6.49;80.35
69035;BME280;56091;55.756;37.412;2023-04-01T22:50:19;98300.31;;;6.25;81.63
69035;BME280;56091;55.756;37.412;2023-04-01T22:55:26;98331.38;;;6.49;84.16
69035;BME280;56091;55.756;37.412;2023-04-01T23:00:33;98322.94;;;6.35;84.90
69035;BME280;56091;55.756;37.412;2023-04-01T23:05:41;98331.78;;;6.35;87.29
69035;BME280;56091;55.756;37.412;2023-04-01T23:10:52;98341.31;;;6.26;89.50
69035;BME280;56091;55.756;37.412;2023-04-01T23:16:01;98339.81;;;6.13;91.75
69035;BME280;56091;55.756;37.412;2023-04-01T23:26:40;98325.06;;;5.94;95.78
69035;BME280;56091;55.756;37.412;2023-04-01T23:32:13;98338.06;;;6.02;97.10
69035;BME280;56091;55.756;37.412;2023-04-01T23:37:16;98325.91;;;5.94;97.01
69035;BME280;56091;55.756;37.412;2023-04-01T23:42:39;98343.97;;;6.04;96.54
69035;BME280;56091;55.756;37.412;2023-04-01T23:47:41;98337.56;;;6.05;95.96
69035;BME280;56091;55.756;37.412;2023-04-01T23:52:46;98339.44;;;6.04;94.60
